createdAt,value
2019-05-11T00:02:00.490Z,9.00
2019-05-11T00:04:29.480Z,8.89
2019-05-11T00:06:58.407Z,8.89
2019-05-11T00:09:27.367Z,8.91
2019-05-11T00:11:56.351Z,9.01
2019-05-11T00:14:26.630Z,8.99
2019-05-11T00:16:55.247Z,8.96
2019-05-11T00:19:24.046Z,9.05
2019-05-11T00:21:52.968Z,9.06
2019-05-11T00:24:22.638Z,9.15
2019-05-11T00:26:51.561Z,9.32
2019-05-11T00:29:20.493Z,9.33
2019-05-11T00:31:49.176Z,9.26
2019-05-11T00:34:17.885Z,9.12
2019-05-11T00:36:46.585Z,9.05
2019-05-11T00:39:15.271Z,8.98
2019-05-11T00:41:44.269Z,9.20
2019-05-11T00:44:13.091Z,9.15
2019-05-11T00:46:41.854Z,9.04
2019-05-11T00:49:10.981Z,8.86
2019-05-11T00:51:39.665Z,8.81
2019-05-11T00:54:08.354Z,8.85
2019-05-11T00:56:37.036Z,8.84
2019-05-11T00:59:20.692Z,8.79
2019-05-11T01:01:36.223Z,8.83
2019-05-11T01:04:05.057Z,8.96
2019-05-11T01:06:33.738Z,8.93
2019-05-11T01:09:02.595Z,8.88
2019-05-11T01:11:31.523Z,8.82
2019-05-11T01:14:00.219Z,8.81
2019-05-11T01:16:28.921Z,8.87
2019-05-11T01:18:57.614Z,8.80
2019-05-11T01:21:26.365Z,8.81
2019-05-11T01:23:55.831Z,8.69
2019-05-11T01:26:24.606Z,8.76
2019-05-11T01:28:53.547Z,8.74
2019-05-11T01:31:22.259Z,8.74
2019-05-11T01:33:52.549Z,8.72
2019-05-11T01:36:21.230Z,8.74
2019-05-11T01:38:50.182Z,8.73
2019-05-11T01:41:18.874Z,8.76
2019-05-11T01:43:47.596Z,8.69
2019-05-11T01:46:16.531Z,8.75
2019-05-11T01:48:45.577Z,8.79
2019-05-11T01:51:14.514Z,8.78
2019-05-11T01:53:43.707Z,8.71
2019-05-11T01:56:12.420Z,8.77
2019-05-11T01:58:41.099Z,8.77
2019-05-11T02:01:10.281Z,8.76
2019-05-11T02:03:39.803Z,8.75
2019-05-11T02:06:08.736Z,8.73
2019-05-11T02:08:37.447Z,8.71
2019-05-11T02:11:15.567Z,8.71
2019-05-11T02:13:36.802Z,8.68
2019-05-11T02:16:05.811Z,8.68
2019-05-11T02:18:34.835Z,8.67
2019-05-11T02:21:04.018Z,8.64
2019-05-11T02:23:32.946Z,8.66
2019-05-11T02:26:01.997Z,8.68
2019-05-11T02:28:30.952Z,8.63
2019-05-11T02:30:59.896Z,8.58
2019-05-11T02:33:28.629Z,8.54
2019-05-11T02:35:57.574Z,8.55
2019-05-11T02:38:26.260Z,8.55
2019-05-11T02:40:55.244Z,8.54
2019-05-11T02:43:24.398Z,8.52
2019-05-11T02:45:53.421Z,8.45
2019-05-11T02:48:22.430Z,8.51
2019-05-11T02:50:52.210Z,8.57
2019-05-11T02:53:21.939Z,8.61
2019-05-11T02:55:51.796Z,8.55
2019-05-11T02:58:20.543Z,8.58
2019-05-11T03:00:49.418Z,8.66
2019-05-11T03:03:18.369Z,8.67
2019-05-11T03:05:47.306Z,8.63
2019-05-11T03:08:16.227Z,8.63
2019-05-11T03:10:45.178Z,8.72
2019-05-11T03:13:16.814Z,8.71
2019-05-11T03:15:45.981Z,8.71
2019-05-11T03:18:14.919Z,8.68
2019-05-11T03:20:43.601Z,8.68
2019-05-11T03:23:12.747Z,8.75
2019-05-11T03:25:41.712Z,8.68
2019-05-11T03:28:10.639Z,8.67
2019-05-11T03:30:39.589Z,8.67
2019-05-11T03:33:08.343Z,8.60
2019-05-11T03:35:37.056Z,8.51
2019-05-11T03:38:05.827Z,8.49
2019-05-11T03:40:34.717Z,8.53
2019-05-11T03:43:03.430Z,8.52
2019-05-11T03:45:33.672Z,8.43
2019-05-11T03:48:02.601Z,8.33
2019-05-11T03:50:31.310Z,8.37
2019-05-11T03:53:00.253Z,8.37
2019-05-11T03:55:28.951Z,8.36
2019-05-11T03:57:57.613Z,8.36
2019-05-11T04:00:26.477Z,8.39
2019-05-11T04:02:55.448Z,8.49
2019-05-11T04:05:24.629Z,8.50
2019-05-11T04:07:53.317Z,8.34
2019-05-11T04:10:25.104Z,8.26
2019-05-11T04:12:54.650Z,8.31
2019-05-11T04:15:23.391Z,8.31
2019-05-11T04:17:52.308Z,8.38
2019-05-11T04:20:20.997Z,8.37
2019-05-11T04:22:49.932Z,8.35
2019-05-11T04:25:18.620Z,8.35
2019-05-11T04:27:47.566Z,8.37
2019-05-11T04:30:16.874Z,8.37
2019-05-11T04:32:45.810Z,8.44
2019-05-11T04:35:16.943Z,8.49
2019-05-11T04:37:46.186Z,8.44
2019-05-11T04:40:15.250Z,8.41
2019-05-11T04:42:55.065Z,8.49
2019-05-11T04:45:14.785Z,8.51
2019-05-11T04:47:43.470Z,8.44
2019-05-11T04:50:12.833Z,8.48
2019-05-11T04:52:41.575Z,8.48
2019-05-11T04:55:10.617Z,8.50
2019-05-11T04:57:39.554Z,8.55
2019-05-11T05:00:08.938Z,8.58
2019-05-11T05:02:37.867Z,8.59
2019-05-11T05:05:06.867Z,8.56
2019-05-11T05:07:35.541Z,8.63
2019-05-11T05:10:04.338Z,8.70
2019-05-11T05:12:33.277Z,8.69
2019-05-11T05:15:02.442Z,8.72
2019-05-11T05:17:31.140Z,8.76
2019-05-11T05:20:00.372Z,8.77
2019-05-11T05:22:29.035Z,8.76
2019-05-11T05:24:57.713Z,8.86
2019-05-11T05:27:26.431Z,8.86
2019-05-11T05:29:55.085Z,8.88
2019-05-11T05:32:24.269Z,8.96
2019-05-11T05:34:53.453Z,8.92
2019-05-11T05:37:22.623Z,9.03
2019-05-11T05:39:51.571Z,9.04
2019-05-11T05:42:20.518Z,9.09
2019-05-11T05:44:49.748Z,9.07
2019-05-11T05:47:18.713Z,9.06
2019-05-11T05:49:47.607Z,9.12
2019-05-11T05:52:16.779Z,9.11
2019-05-11T05:54:45.955Z,9.21
2019-05-11T05:57:14.655Z,9.25
2019-05-11T05:59:43.847Z,9.42
2019-05-11T06:02:15.601Z,9.45
2019-05-11T06:04:44.807Z,9.51
2019-05-11T06:07:13.490Z,9.44
2019-05-11T06:09:42.184Z,9.36
2019-05-11T06:12:11.156Z,9.36
2019-05-11T06:14:39.927Z,9.30
2019-05-11T06:17:08.587Z,9.32
2019-05-11T06:19:38.057Z,9.38
2019-05-11T06:22:07.164Z,9.39
2019-05-11T06:24:36.347Z,9.52
2019-05-11T06:27:07.339Z,9.52
2019-05-11T06:29:36.131Z,9.64
2019-05-11T06:32:05.084Z,9.61
2019-05-11T06:34:34.022Z,9.64
2019-05-11T06:37:05.328Z,9.67
2019-05-11T06:39:34.238Z,9.86
2019-05-11T06:42:02.986Z,9.92
2019-05-11T06:44:31.684Z,9.97
2019-05-11T06:47:00.439Z,10.06
2019-05-11T06:49:29.369Z,9.98
2019-05-11T06:51:58.061Z,10.08
2019-05-11T06:54:27.012Z,10.09
2019-05-11T06:56:55.733Z,9.95
2019-05-11T06:59:27.584Z,10.05
2019-05-11T07:01:56.555Z,10.04
2019-05-11T07:04:25.251Z,10.09
2019-05-11T07:06:54.475Z,10.22
2019-05-11T07:09:23.678Z,10.39
2019-05-11T07:11:52.625Z,10.26
2019-05-11T07:14:21.740Z,10.30
2019-05-11T07:16:50.506Z,10.31
2019-05-11T07:19:19.419Z,10.25
2019-05-11T07:21:48.610Z,10.21
2019-05-11T07:24:17.363Z,10.08
2019-05-11T07:26:46.305Z,9.97
2019-05-11T07:29:16.657Z,9.99
2019-05-11T07:31:45.835Z,10.12
2019-05-11T07:34:14.524Z,10.09
2019-05-11T07:36:43.258Z,10.20
2019-05-11T07:39:11.948Z,10.06
2019-05-11T07:41:40.665Z,10.16
2019-05-11T07:44:10.171Z,10.18
2019-05-11T07:46:39.166Z,10.16
2019-05-11T07:49:11.130Z,10.02
2019-05-11T07:51:39.846Z,9.98
2019-05-11T07:54:08.679Z,9.98
2019-05-11T07:56:38.992Z,9.89
2019-05-11T07:59:08.136Z,9.86
2019-05-11T08:01:38.664Z,9.92
2019-05-11T08:04:07.928Z,9.92
2019-05-11T08:06:38.931Z,9.82
2019-05-11T08:09:08.384Z,9.87
2019-05-11T08:11:38.923Z,9.84
2019-05-11T08:14:07.941Z,9.71
2019-05-11T08:16:39.072Z,9.71
2019-05-11T08:19:10.625Z,9.80
2019-05-11T08:21:38.871Z,9.86
2019-05-11T08:24:09.133Z,9.96
2019-05-11T08:26:38.665Z,9.95
2019-05-11T08:29:08.220Z,9.91
2019-05-11T08:31:38.412Z,9.91
2019-05-11T08:34:08.838Z,9.98
2019-05-11T08:36:38.054Z,10.02
2019-05-11T08:39:08.038Z,9.96
2019-05-11T08:41:38.499Z,10.14
2019-05-11T08:44:08.954Z,10.22
2019-05-11T08:46:38.537Z,10.36
2019-05-11T08:49:08.616Z,10.29
2019-05-11T08:51:38.646Z,10.40
2019-05-11T08:54:09.016Z,10.37
2019-05-11T08:56:38.386Z,10.31
2019-05-11T08:59:08.117Z,10.36
2019-05-11T09:01:39.280Z,10.30
2019-05-11T09:04:08.965Z,9.61
2019-05-11T09:06:37.886Z,10.05
2019-05-11T09:09:08.939Z,9.94
2019-05-11T09:11:38.914Z,9.89
2019-05-11T09:14:08.491Z,9.88
2019-05-11T09:16:38.470Z,9.82
2019-05-11T09:19:08.735Z,9.76
2019-05-11T09:21:38.424Z,9.71
2019-05-11T09:24:08.448Z,9.64
2019-05-11T09:26:38.816Z,9.54
2019-05-11T09:29:08.697Z,9.51
2019-05-11T09:31:38.187Z,9.56
2019-05-11T09:34:08.967Z,9.68
2019-05-11T09:36:38.867Z,9.67
2019-05-11T09:39:08.761Z,9.72
2019-05-11T09:41:38.335Z,9.60
2019-05-11T09:44:08.996Z,9.68
2019-05-11T09:46:38.420Z,9.68
2019-05-11T09:49:08.157Z,9.48
2019-05-11T09:51:38.117Z,9.48
2019-05-11T09:54:07.928Z,9.66
2019-05-11T09:56:38.146Z,9.72
2019-05-11T09:59:08.843Z,9.79
2019-05-11T10:01:37.992Z,9.79
2019-05-11T10:04:09.016Z,9.73
2019-05-11T10:06:38.954Z,9.78
2019-05-11T10:09:08.279Z,9.75
2019-05-11T10:11:39.702Z,9.76
2019-05-11T10:14:08.364Z,9.74
2019-05-11T10:16:38.702Z,9.66
2019-05-11T10:19:08.451Z,9.73
2019-05-11T10:21:38.442Z,9.79
2019-05-11T10:24:08.603Z,9.88
2019-05-11T10:26:38.478Z,9.91
2019-05-11T10:29:07.977Z,9.89
2019-05-11T10:31:38.591Z,9.97
2019-05-11T10:34:08.651Z,10.11
2019-05-11T10:36:41.418Z,10.14
2019-05-11T10:39:10.591Z,10.05
2019-05-11T10:41:39.549Z,10.00
2019-05-11T10:44:08.440Z,9.74
2019-05-11T10:46:38.098Z,9.74
2019-05-11T10:49:08.044Z,9.83
2019-05-11T10:51:38.542Z,9.75
2019-05-11T10:54:08.885Z,9.87
2019-05-11T10:56:38.884Z,9.76
2019-05-11T10:59:08.099Z,9.77
2019-05-11T11:01:38.103Z,9.68
2019-05-11T11:04:09.037Z,9.69
2019-05-11T11:06:38.627Z,9.45
2019-05-11T11:09:09.135Z,9.39
2019-05-11T11:11:38.432Z,9.30
2019-05-11T11:14:08.758Z,9.33
2019-05-11T11:16:42.437Z,9.25
2019-05-11T11:19:08.346Z,9.31
2019-05-11T11:21:38.357Z,9.23
2019-05-11T11:24:07.732Z,9.26
2019-05-11T11:26:37.981Z,9.26
2019-05-11T11:29:08.568Z,9.22
2019-05-11T11:31:38.145Z,9.26
2019-05-11T11:34:08.225Z,9.26
2019-05-11T11:36:37.665Z,9.20
2019-05-11T11:39:08.348Z,9.08
2019-05-11T11:41:37.990Z,9.08
2019-05-11T11:44:07.855Z,9.01
2019-05-11T11:46:50.960Z,8.96
2019-05-11T11:49:08.328Z,9.02
2019-05-11T11:51:37.857Z,8.96
2019-05-11T11:54:08.791Z,8.96
2019-05-11T11:56:38.107Z,8.89
2019-05-11T11:59:08.553Z,8.90
2019-05-11T12:01:38.402Z,8.96
2019-05-11T12:04:08.259Z,8.99
2019-05-11T12:06:38.604Z,9.07
2019-05-11T12:09:08.982Z,8.97
2019-05-11T12:11:38.293Z,8.99
2019-05-11T12:14:08.703Z,9.00
2019-05-11T12:16:38.882Z,9.00
2019-05-11T12:19:08.592Z,9.05
2019-05-11T12:21:37.947Z,9.05
2019-05-11T12:24:08.187Z,9.00
2019-05-11T12:26:38.859Z,9.04
2019-05-11T12:29:08.263Z,9.00
2019-05-11T12:31:38.047Z,8.98
2019-05-11T12:34:08.812Z,8.92
2019-05-11T12:36:38.747Z,9.01
2019-05-11T12:39:08.568Z,9.05
2019-05-11T12:41:38.720Z,8.96
2019-05-11T12:44:08.376Z,8.94
2019-05-11T12:46:39.541Z,8.91
2019-05-11T12:49:08.675Z,8.79
2019-05-11T12:51:38.364Z,8.80
2019-05-11T12:54:08.244Z,8.87
2019-05-11T12:56:38.289Z,8.90
2019-05-11T12:59:08.279Z,8.99
2019-05-11T13:01:38.119Z,9.12
2019-05-11T13:04:09.074Z,9.12
2019-05-11T13:06:38.502Z,9.02
2019-05-11T13:09:08.378Z,9.12
2019-05-11T13:11:37.994Z,9.12
2019-05-11T13:14:08.012Z,9.09
2019-05-11T13:16:37.997Z,9.09
2019-05-11T13:19:08.335Z,9.01
2019-05-11T13:21:38.215Z,9.07
2019-05-11T13:24:08.350Z,9.07
2019-05-11T13:26:38.220Z,9.27
2019-05-11T13:29:07.814Z,9.27
2019-05-11T13:31:38.382Z,9.29
2019-05-11T13:34:08.369Z,9.36
2019-05-11T13:36:38.343Z,9.39
2019-05-11T13:39:08.950Z,9.33
2019-05-11T13:41:40.639Z,9.33
2019-05-11T13:44:09.320Z,9.34
2019-05-11T13:46:38.835Z,9.25
2019-05-11T13:49:08.542Z,9.37
2019-05-11T13:51:38.830Z,9.42
2019-05-11T13:54:08.134Z,9.45
2019-05-11T13:56:37.936Z,9.45
2019-05-11T13:59:10.814Z,9.51
2019-05-11T14:01:40.051Z,9.32
2019-05-11T14:04:08.789Z,9.33
2019-05-11T14:06:37.897Z,9.38
2019-05-11T14:09:08.670Z,9.38
2019-05-11T14:11:39.023Z,9.31
2019-05-11T14:14:08.246Z,9.48
2019-05-11T14:16:37.937Z,9.48
2019-05-11T14:19:08.613Z,9.57
2019-05-11T14:21:38.483Z,9.66
2019-05-11T14:24:07.968Z,9.64
2019-05-11T14:26:38.576Z,9.76
2019-05-11T14:29:08.456Z,9.82
2019-05-11T14:31:38.737Z,9.75
2019-05-11T14:34:08.828Z,9.90
2019-05-11T14:36:38.718Z,9.98
2019-05-11T14:39:08.652Z,9.97
2019-05-11T14:41:38.323Z,9.90
2019-05-11T14:44:08.801Z,9.75
2019-05-11T14:46:38.432Z,9.72
2019-05-11T14:49:07.964Z,9.80
2019-05-11T14:51:39.163Z,9.85
2019-05-11T14:54:08.382Z,9.96
2019-05-11T14:56:38.223Z,9.91
2019-05-11T14:59:09.064Z,9.99
2019-05-11T15:01:38.381Z,9.95
2019-05-11T15:04:09.107Z,10.15
2019-05-11T15:06:38.652Z,10.08
2019-05-11T15:09:08.533Z,10.13
2019-05-11T15:11:38.822Z,10.13
2019-05-11T15:14:08.281Z,10.15
2019-05-11T15:16:38.395Z,10.15
2019-05-11T15:19:08.006Z,10.09
2019-05-11T15:21:38.721Z,10.24
2019-05-11T15:24:09.060Z,10.18
2019-05-11T15:26:38.315Z,10.18
2019-05-11T15:29:08.206Z,10.17
2019-05-11T15:31:38.036Z,10.32
2019-05-11T15:34:08.476Z,10.34
2019-05-11T15:36:38.683Z,10.43
2019-05-11T15:39:08.081Z,10.50
2019-05-11T15:41:38.878Z,10.60
2019-05-11T15:44:11.404Z,10.65
2019-05-11T15:46:39.034Z,10.69
2019-05-11T15:49:08.792Z,10.53
2019-05-11T15:51:41.045Z,10.51
2019-05-11T15:54:08.494Z,10.52
2019-05-11T15:56:38.488Z,10.43
2019-05-11T15:59:08.616Z,10.45
2019-05-11T16:01:40.941Z,10.31
2019-05-11T16:04:09.154Z,10.23
2019-05-11T16:06:40.210Z,10.15
2019-05-11T16:09:09.252Z,10.15
2019-05-11T16:11:38.784Z,10.09
2019-05-11T16:14:08.812Z,10.14
2019-05-11T16:16:39.000Z,10.11
2019-05-11T16:19:13.977Z,10.15
2019-05-11T16:21:38.628Z,10.21
2019-05-11T16:24:09.516Z,10.24
2019-05-11T16:26:38.472Z,10.23
2019-05-11T16:29:08.535Z,10.27
2019-05-11T16:31:39.257Z,10.19
2019-05-11T16:34:08.214Z,10.20
2019-05-11T16:36:38.884Z,10.34
2019-05-11T16:39:10.523Z,10.27
2019-05-11T16:41:39.576Z,10.30
2019-05-11T16:44:08.548Z,10.28
2019-05-11T16:46:38.970Z,10.38
2019-05-11T16:49:09.467Z,10.38
2019-05-11T16:51:39.003Z,10.46
2019-05-11T16:54:07.901Z,10.48
2019-05-11T16:56:38.335Z,10.49
2019-05-11T16:59:08.280Z,10.56
2019-05-11T17:01:38.047Z,10.43
2019-05-11T17:04:06.940Z,10.53
2019-05-11T17:06:38.311Z,10.74
2019-05-11T17:09:08.956Z,10.72
2019-05-11T17:11:38.431Z,10.94
2019-05-11T17:14:08.299Z,11.03
2019-05-11T17:16:38.512Z,11.13
2019-05-11T17:19:08.090Z,11.19
2019-05-11T17:21:38.026Z,11.18
2019-05-11T17:24:07.123Z,11.08
2019-05-11T17:26:38.356Z,11.03
2019-05-11T17:29:06.470Z,11.08
2019-05-11T17:31:37.860Z,11.08
2019-05-11T17:34:08.771Z,11.06
2019-05-11T17:36:36.852Z,11.00
2019-05-11T17:39:07.729Z,11.06
2019-05-11T17:41:38.648Z,10.97
2019-05-11T17:44:08.181Z,11.02
2019-05-11T17:46:38.408Z,10.91
2019-05-11T17:49:08.043Z,10.90
2019-05-11T17:51:37.938Z,10.84
2019-05-11T17:54:08.025Z,10.81
2019-05-11T17:56:38.807Z,10.69
2019-05-11T17:59:08.223Z,10.72
2019-05-11T18:01:37.149Z,10.73
2019-05-11T18:04:08.060Z,10.70
2019-05-11T18:06:38.449Z,10.71
2019-05-11T18:09:08.383Z,10.78
2019-05-11T18:11:38.162Z,10.75
2019-05-11T18:14:08.431Z,10.72
2019-05-11T18:16:37.420Z,10.72
2019-05-11T18:19:08.480Z,10.71
2019-05-11T18:21:38.671Z,10.71
2019-05-11T18:24:09.130Z,10.65
2019-05-11T18:26:38.439Z,10.61
2019-05-11T18:29:07.310Z,10.55
2019-05-11T18:31:38.383Z,10.52
2019-05-11T18:34:08.844Z,10.45
2019-05-11T18:36:38.234Z,10.44
2019-05-11T18:39:08.347Z,10.38
2019-05-11T18:41:39.150Z,10.31
2019-05-11T18:44:11.073Z,10.19
2019-05-11T18:46:40.113Z,10.19
2019-05-11T18:49:08.795Z,10.19
2019-05-11T18:51:38.029Z,10.14
2019-05-11T18:54:09.128Z,10.04
2019-05-11T18:56:38.289Z,9.90
2019-05-11T18:59:08.873Z,9.88
2019-05-11T19:01:38.145Z,9.74
2019-05-11T19:04:07.851Z,9.61
2019-05-11T19:06:37.834Z,9.61
2019-05-11T19:09:09.513Z,9.55
2019-05-11T19:11:38.581Z,9.52
2019-05-11T19:14:08.754Z,9.47
2019-05-11T19:16:39.033Z,9.44
2019-05-11T19:19:08.360Z,9.35
2019-05-11T19:21:37.143Z,9.28
2019-05-11T19:24:09.050Z,9.25
2019-05-11T19:26:36.459Z,9.12
2019-05-11T19:29:05.371Z,9.11
2019-05-11T19:31:34.335Z,9.03
2019-05-11T19:34:03.290Z,8.97
2019-05-11T19:36:31.970Z,8.94
2019-05-11T19:39:00.730Z,8.86
2019-05-11T19:41:29.704Z,8.75
2019-05-11T19:43:58.423Z,8.70
2019-05-11T19:46:28.074Z,8.66
2019-05-11T19:48:58.013Z,8.61
2019-05-11T19:51:29.124Z,8.57
2019-05-11T19:53:57.665Z,8.50
2019-05-11T19:56:28.752Z,8.47
2019-05-11T19:58:57.944Z,8.38
2019-05-11T20:01:27.872Z,8.33
2019-05-11T20:03:57.185Z,8.31
2019-05-11T20:06:28.080Z,8.16
2019-05-11T20:08:58.085Z,8.15
2019-05-11T20:11:27.915Z,8.05
2019-05-11T20:13:58.789Z,8.00
2019-05-11T20:16:27.438Z,7.98
2019-05-11T20:18:57.840Z,7.92
2019-05-11T20:21:28.810Z,7.88
2019-05-11T20:23:57.870Z,7.80
2019-05-11T20:26:28.552Z,7.75
2019-05-11T20:28:58.781Z,7.74
2019-05-11T20:31:27.817Z,7.71
2019-05-11T20:33:56.540Z,7.63
2019-05-11T20:36:25.212Z,7.65
2019-05-11T20:38:54.162Z,7.61
2019-05-11T20:41:22.872Z,7.50
2019-05-11T20:43:51.878Z,7.48
2019-05-11T20:46:20.657Z,7.42
2019-05-11T20:48:49.613Z,7.39
2019-05-11T20:51:32.837Z,7.37
2019-05-11T20:53:49.008Z,7.35
2019-05-11T20:56:17.988Z,7.32
2019-05-11T20:58:59.833Z,7.34
2019-05-11T21:01:29.071Z,7.19
2019-05-11T21:03:58.659Z,7.12
2019-05-11T21:06:29.397Z,7.12
2019-05-11T21:08:58.604Z,7.11
2019-05-11T21:11:27.390Z,7.04
2019-05-11T21:13:56.339Z,6.98
2019-05-11T21:16:25.031Z,6.97
2019-05-11T21:18:54.231Z,6.92
2019-05-11T21:21:23.167Z,6.87
2019-05-11T21:23:52.119Z,6.87
2019-05-11T21:26:21.124Z,6.82
2019-05-11T21:28:49.820Z,6.79
2019-05-11T21:31:18.841Z,6.77
2019-05-11T21:33:48.026Z,6.73
2019-05-11T21:36:18.050Z,6.73
2019-05-11T21:38:52.657Z,6.71
2019-05-11T21:41:21.420Z,6.68
2019-05-11T21:43:50.744Z,6.68
2019-05-11T21:46:19.548Z,6.69
2019-05-11T21:48:48.293Z,6.57
2019-05-11T21:51:18.167Z,6.57
2019-05-11T21:53:48.719Z,6.60
2019-05-11T21:56:18.750Z,6.52
2019-05-11T21:58:47.618Z,6.52
2019-05-11T22:01:20.082Z,6.56
2019-05-11T22:03:47.929Z,6.55
2019-05-11T22:06:20.150Z,6.43
2019-05-11T22:08:50.856Z,6.47
2019-05-11T22:11:19.591Z,6.45
2019-05-11T22:13:50.078Z,6.41
2019-05-11T22:16:18.826Z,6.43
2019-05-11T22:18:48.502Z,6.36
2019-05-11T22:21:18.781Z,6.36
2019-05-11T22:23:50.597Z,6.38
2019-05-11T22:26:18.140Z,6.36
2019-05-11T22:28:48.199Z,6.33
2019-05-11T22:31:18.201Z,6.30
2019-05-11T22:33:48.058Z,6.26
2019-05-11T22:36:17.331Z,6.24
2019-05-11T22:38:48.132Z,6.21
2019-05-11T22:41:18.093Z,6.21
2019-05-11T22:43:48.588Z,6.16
2019-05-11T22:46:17.809Z,6.19
2019-05-11T22:48:48.895Z,6.15
2019-05-11T22:51:18.372Z,6.19
2019-05-11T22:53:50.202Z,6.12
2019-05-11T22:56:19.935Z,6.02
2019-05-11T22:58:50.012Z,6.01
2019-05-11T23:01:18.690Z,6.02
2019-05-11T23:03:47.945Z,5.98
2019-05-11T23:06:18.127Z,5.93
2019-05-11T23:08:48.311Z,5.93
2019-05-11T23:11:18.023Z,5.90
2019-05-11T23:13:47.893Z,5.91
2019-05-11T23:16:18.026Z,5.93
2019-05-11T23:18:48.117Z,5.90
2019-05-11T23:21:16.906Z,5.88
2019-05-11T23:23:47.855Z,5.86
2019-05-11T23:26:17.806Z,5.84
2019-05-11T23:28:48.715Z,5.79
2019-05-11T23:31:17.892Z,5.86
2019-05-11T23:33:46.823Z,5.88
2019-05-11T23:36:15.512Z,5.88
2019-05-11T23:38:44.191Z,5.83
2019-05-11T23:41:24.063Z,5.84
2019-05-11T23:43:43.811Z,5.80
2019-05-11T23:46:12.755Z,5.78
2019-05-11T23:48:41.451Z,5.75
2019-05-11T23:51:10.453Z,5.75
2019-05-11T23:53:39.398Z,5.67
2019-05-11T23:56:08.406Z,5.67
2019-05-11T23:58:39.084Z,5.64
